sensor_id;sensor_type;location;lat;lon;timestamp;pressure;altitude;pressure_sealevel;temperature;humidity
11038;BME280;5572;49.540;11.932;2023-06-26T01:21:22;96042.41;;;14.51;100.00
11038;BME280;5572;49.540;11.932;2023-06-26T01:24:01;96051.50;;;14.55;100.00
11038;BME280;5572;49.540;11.932;2023-06-26T01:26:34;95972.00;;;14.50;100.00
11038;BME280;5572;49.540;11.932;2023-06-26T01:29:02;95979.16;;;14.54;100.00
11038;BME280;5572;49.540;11.932;2023-06-26T01:31:30;95974.03;;;14.61;100.00
11038;BME280;5572;49.540;11.932;2023-06-26T01:33:58;95983.38;;;14.43;100.00
11038;BME280;5572;49.540;11.932;2023-06-26T01:36:25;95987.06;;;14.47;100.00
11038;BME280;5572;49.540;11.932;2023-06-26T01:38:51;95991.72;;;14.47;100.00
11038;BME280;5572;49.540;11.932;2023-06-26T01:41:18;96005.94;;;14.44;100.00
11038;BME280;5572;49.540;11.932;2023-06-26T01:44:01;96022.50;;;14.22;100.00
11038;BME280;5572;49.540;11.932;2023-06-26T01:46:35;96014.63;;;14.37;100.00
11038;BME280;5572;49.540;11.932;2023-06-26T01:49:06;96020.06;;;14.37;100.00
11038;BME280;5572;49.540;11.932;2023-06-26T01:51:38;96022.03;;;14.20;100.00
11038;BME280;5572;49.540;11.932;2023-06-26T01:54:10;96017.03;;;14.30;100.00
11038;BME280;5572;49.540;11.932;2023-06-26T01:56:38;96021.88;;;14.16;100.00
11038;BME280;5572;49.540;11.932;2023-06-26T01:59:07;96015.75;;;14.28;100.00
11038;BME280;5572;49.540;11.932;2023-06-26T02:01:35;96017.53;;;14.24;100.00
11038;BME280;5572;49.540;11.932;2023-06-26T02:04:02;96020.38;;;14.36;100.00
11038;BME280;5572;49.540;11.932;2023-06-26T02:06:28;96029.19;;;14.33;100.00
11038;BME280;5572;49.540;11.932;2023-06-26T02:08:55;96026.03;;;14.22;100.00
11038;BME280;5572;49.540;11.932;2023-06-26T02:11:22;96035.47;;;14.25;100.00
11038;BME280;5572;49.540;11.932;2023-06-26T02:13:48;96043.78;;;14.20;100.00
11038;BME280;5572;49.540;11.932;2023-06-26T02:16:16;96045.41;;;14.12;100.00
11038;BME280;5572;49.540;11.932;2023-06-26T02:18:43;96046.50;;;14.03;100.00
11038;BME280;5572;49.540;11.932;2023-06-26T02:21:10;96049.22;;;13.94;100.00
11038;BME280;5572;49.540;11.932;2023-06-26T02:23:37;96057.75;;;13.76;100.00
11038;BME280;5572;49.540;11.932;2023-06-26T02:26:03;96056.16;;;13.67;100.00
11038;BME280;5572;49.540;11.932;2023-06-26T02:28:30;96050.72;;;13.75;100.00
11038;BME280;5572;49.540;11.932;2023-06-26T02:30:56;96051.50;;;13.84;100.00
11038;BME280;5572;49.540;11.932;2023-06-26T02:33:24;96053.28;;;13.72;100.00
11038;BME280;5572;49.540;11.932;2023-06-26T02:35:51;96060.78;;;13.66;100.00
11038;BME280;5572;49.540;11.932;2023-06-26T02:38:18;96054.06;;;13.80;100.00
11038;BME280;5572;49.540;11.932;2023-06-26T02:40:44;96049.91;;;13.74;100.00
11038;BME280;5572;49.540;11.932;2023-06-26T02:43:11;96050.69;;;13.92;100.00
11038;BME280;5572;49.540;11.932;2023-06-26T02:45:37;96044.13;;;13.84;100.00
11038;BME280;5572;49.540;11.932;2023-06-26T02:48:04;96055.34;;;13.83;100.00
11038;BME280;5572;49.540;11.932;2023-06-26T02:50:32;96048.59;;;13.97;100.00
11038;BME280;5572;49.540;11.932;2023-06-26T02:52:59;96048.44;;;13.94;100.00
11038;BME280;5572;49.540;11.932;2023-06-26T02:55:25;96050.34;;;13.93;100.00
11038;BME280;5572;49.540;11.932;2023-06-26T02:57:52;96063.97;;;13.85;100.00
11038;BME280;5572;49.540;11.932;2023-06-26T03:00:18;96060.13;;;13.69;100.00
11038;BME280;5572;49.540;11.932;2023-06-26T03:02:45;96064.94;;;13.72;100.00
11038;BME280;5572;49.540;11.932;2023-06-26T03:05:12;96070.53;;;13.50;100.00
11038;BME280;5572;49.540;11.932;2023-06-26T03:07:40;96065.41;;;13.49;100.00
11038;BME280;5572;49.540;11.932;2023-06-26T03:10:07;96051.53;;;13.59;100.00
11038;BME280;5572;49.540;11.932;2023-06-26T03:12:34;96035.06;;;13.80;100.00
11038;BME280;5572;49.540;11.932;2023-06-26T03:15:00;96044.19;;;13.51;100.00
11038;BME280;5572;49.540;11.932;2023-06-26T03:17:27;96056.31;;;13.45;100.00
11038;BME280;5572;49.540;11.932;2023-06-26T03:19:53;96045.28;;;13.41;100.00
11038;BME280;5572;49.540;11.932;2023-06-26T03:22:20;96050.19;;;13.90;100.00
11038;BME280;5572;49.540;11.932;2023-06-26T03:24:48;96052.44;;;13.88;100.00
11038;BME280;5572;49.540;11.932;2023-06-26T03:27:14;96068.44;;;13.81;100.00
11038;BME280;5572;49.540;11.932;2023-06-26T03:29:41;96051.47;;;13.92;100.00
11038;BME280;5572;49.540;11.932;2023-06-26T03:32:08;96047.53;;;13.81;100.00
11038;BME280;5572;49.540;11.932;2023-06-26T03:34:34;96045.25;;;13.83;100.00
11038;BME280;5572;49.540;11.932;2023-06-26T03:37:01;96056.78;;;13.64;100.00
11038;BME280;5572;49.540;11.932;2023-06-26T03:39:28;96067.81;;;13.75;100.00
11038;BME280;5572;49.540;11.932;2023-06-26T03:41:56;96066.69;;;13.76;100.00
11038;BME280;5572;49.540;11.932;2023-06-26T03:44:25;96056.63;;;13.77;100.00
11038;BME280;5572;49.540;11.932;2023-06-26T03:46:52;96061.44;;;13.63;100.00
11038;BME280;5572;49.540;11.932;2023-06-26T03:49:18;96057.41;;;13.69;100.00
11038;BME280;5572;49.540;11.932;2023-06-26T03:51:45;96057.59;;;13.64;100.00
11038;BME280;5572;49.540;11.932;2023-06-26T03:54:11;96060.91;;;13.78;100.00
11038;BME280;5572;49.540;11.932;2023-06-26T03:56:42;96062.34;;;13.92;100.00
11038;BME280;5572;49.540;11.932;2023-06-26T03:59:09;96052.09;;;13.98;100.00
11038;BME280;5572;49.540;11.932;2023-06-26T04:01:36;96056.13;;;14.00;100.00
11038;BME280;5572;49.540;11.932;2023-06-26T04:04:05;96057.38;;;13.94;100.00
11038;BME280;5572;49.540;11.932;2023-06-26T04:06:32;96059.13;;;13.99;100.00
11038;BME280;5572;49.540;11.932;2023-06-26T04:09:00;96063.47;;;13.91;100.00
11038;BME280;5572;49.540;11.932;2023-06-26T04:11:27;96058.50;;;14.10;100.00
11038;BME280;5572;49.540;11.932;2023-06-26T04:13:54;96060.22;;;14.23;100.00
11038;BME280;5572;49.540;11.932;2023-06-26T04:16:25;96046.09;;;14.47;100.00
11038;BME280;5572;49.540;11.932;2023-06-26T04:18:53;96049.13;;;14.45;100.00
11038;BME280;5572;49.540;11.932;2023-06-26T04:21:21;96056.63;;;14.57;100.00
11038;BME280;5572;49.540;11.932;2023-06-26T04:23:50;96046.59;;;14.40;100.00
11038;BME280;5572;49.540;11.932;2023-06-26T04:26:17;96033.69;;;14.66;100.00
11038;BME280;5572;49.540;11.932;2023-06-26T04:28:46;96044.91;;;14.64;100.00
11038;BME280;5572;49.540;11.932;2023-06-26T04:31:13;96029.19;;;14.70;100.00
11038;BME280;5572;49.540;11.932;2023-06-26T04:33:41;96023.75;;;14.99;100.00
11038;BME280;5572;49.540;11.932;2023-06-26T04:36:07;96007.06;;;15.00;100.00
11038;BME280;5572;49.540;11.932;2023-06-26T04:38:36;96002.97;;;15.15;100.00
11038;BME280;5572;49.540;11.932;2023-06-26T04:41:04;95988.72;;;15.38;100.00
11038;BME280;5572;49.540;11.932;2023-06-26T04:43:31;95967.69;;;16.47;100.00
11038;BME280;5572;49.540;11.932;2023-06-26T04:45:59;95971.72;;;19.11;100.00
11038;BME280;5572;49.540;11.932;2023-06-26T04:48:27;95982.22;;;19.63;100.00
11038;BME280;5572;49.540;11.932;2023-06-26T04:50:55;95965.03;;;20.22;100.00
11038;BME280;5572;49.540;11.932;2023-06-26T04:53:24;95968.38;;;20.57;100.00
11038;BME280;5572;49.540;11.932;2023-06-26T04:55:51;95859.41;;;20.65;100.00
11038;BME280;5572;49.540;11.932;2023-06-26T04:58:18;95829.69;;;20.70;100.00
11038;BME280;5572;49.540;11.932;2023-06-26T05:00:45;95847.66;;;20.90;100.00
11038;BME280;5572;49.540;11.932;2023-06-26T05:03:13;95826.28;;;21.68;100.00
11038;BME280;5572;49.540;11.932;2023-06-26T05:05:40;95854.09;;;21.30;100.00
11038;BME280;5572;49.540;11.932;2023-06-26T05:08:20;95823.53;;;21.39;100.00
11038;BME280;5572;49.540;11.932;2023-06-26T05:10:47;95794.25;;;22.93;100.00
11038;BME280;5572;49.540;11.932;2023-06-26T05:13:14;95977.38;;;23.39;100.00
11038;BME280;5572;49.540;11.932;2023-06-26T05:15:45;96094.66;;;22.83;100.00
11038;BME280;5572;49.540;11.932;2023-06-26T05:18:12;96139.81;;;21.87;100.00
11038;BME280;5572;49.540;11.932;2023-06-26T05:20:39;96241.28;;;22.37;100.00
11038;BME280;5572;49.540;11.932;2023-06-26T05:23:06;96209.34;;;22.32;100.00
11038;BME280;5572;49.540;11.932;2023-06-26T05:25:34;96154.78;;;24.50;100.00
11038;BME280;5572;49.540;11.932;2023-06-26T05:28:02;96255.34;;;23.49;100.00
11038;BME280;5572;49.540;11.932;2023-06-26T05:30:31;96254.16;;;24.36;100.00
11038;BME280;5572;49.540;11.932;2023-06-26T05:33:00;96305.81;;;23.86;100.00
11038;BME280;5572;49.540;11.932;2023-06-26T05:35:29;96319.31;;;23.94;100.00
11038;BME280;5572;49.540;11.932;2023-06-26T05:37:56;96352.56;;;24.05;100.00
11038;BME280;5572;49.540;11.932;2023-06-26T05:40:24;96339.34;;;25.38;100.00
11038;BME280;5572;49.540;11.932;2023-06-26T05:42:53;96345.72;;;25.46;100.00
11038;BME280;5572;49.540;11.932;2023-06-26T05:45:19;96362.41;;;25.63;100.00
11038;BME280;5572;49.540;11.932;2023-06-26T05:47:46;96365.69;;;26.04;100.00
11038;BME280;5572;49.540;11.932;2023-06-26T05:50:14;96392.94;;;25.77;100.00
11038;BME280;5572;49.540;11.932;2023-06-26T05:52:41;96419.38;;;25.04;100.00
11038;BME280;5572;49.540;11.932;2023-06-26T05:55:10;96422.72;;;25.26;100.00
11038;BME280;5572;49.540;11.932;2023-06-26T05:57:37;96425.03;;;25.89;100.00
11038;BME280;5572;49.540;11.932;2023-06-26T06:00:08;96391.50;;;26.28;100.00
11038;BME280;5572;49.540;11.932;2023-06-26T06:02:36;96343.03;;;27.55;100.00
11038;BME280;5572;49.540;11.932;2023-06-26T06:05:03;96335.66;;;26.96;100.00
11038;BME280;5572;49.540;11.932;2023-06-26T06:07:30;96414.16;;;25.49;100.00
11038;BME280;5572;49.540;11.932;2023-06-26T06:09:56;96342.22;;;27.51;100.00
11038;BME280;5572;49.540;11.932;2023-06-26T06:12:23;96387.09;;;26.13;100.00
11038;BME280;5572;49.540;11.932;2023-06-26T06:14:49;96357.75;;;27.41;100.00
11038;BME280;5572;49.540;11.932;2023-06-26T06:17:17;96307.91;;;27.10;100.00
11038;BME280;5572;49.540;11.932;2023-06-26T06:19:48;96313.41;;;28.02;100.00
11038;BME280;5572;49.540;11.932;2023-06-26T06:22:16;96333.84;;;27.72;100.00
11038;BME280;5572;49.540;11.932;2023-06-26T06:24:45;96295.34;;;27.70;100.00
11038;BME280;5572;49.540;11.932;2023-06-26T06:27:12;96291.66;;;28.48;100.00
11038;BME280;5572;49.540;11.932;2023-06-26T06:29:41;96221.16;;;28.25;100.00
11038;BME280;5572;49.540;11.932;2023-06-26T06:32:08;96196.47;;;28.27;100.00
11038;BME280;5572;49.540;11.932;2023-06-26T06:34:36;96063.53;;;28.15;100.00
11038;BME280;5572;49.540;11.932;2023-06-26T06:37:05;96094.16;;;28.82;100.00
11038;BME280;5572;49.540;11.932;2023-06-26T06:39:32;96055.34;;;27.54;100.00
11038;BME280;5572;49.540;11.932;2023-06-26T06:41:58;96110.63;;;26.66;100.00
11038;BME280;5572;49.540;11.932;2023-06-26T06:44:25;96213.69;;;26.23;100.00
11038;BME280;5572;49.540;11.932;2023-06-26T06:46:53;96341.41;;;25.59;100.00
11038;BME280;5572;49.540;11.932;2023-06-26T06:49:25;96320.56;;;25.86;100.00
11038;BME280;5572;49.540;11.932;2023-06-26T06:51:53;96316.09;;;25.60;100.00
11038;BME280;5572;49.540;11.932;2023-06-26T06:54:20;96321.31;;;25.79;100.00
11038;BME280;5572;49.540;11.932;2023-06-26T06:56:46;96248.94;;;26.54;100.00
11038;BME280;5572;49.540;11.932;2023-06-26T06:59:13;96263.19;;;25.97;100.00
11038;BME280;5572;49.540;11.932;2023-06-26T07:01:40;96249.63;;;27.03;100.00
11038;BME280;5572;49.540;11.932;2023-06-26T07:04:06;96155.25;;;27.10;100.00
11038;BME280;5572;49.540;11.932;2023-06-26T07:06:32;96154.31;;;26.10;100.00
11038;BME280;5572;49.540;11.932;2023-06-26T07:09:01;96264.31;;;25.68;100.00
11038;BME280;5572;49.540;11.932;2023-06-26T07:11:28;96235.38;;;25.58;100.00
11038;BME280;5572;49.540;11.932;2023-06-26T07:13:55;96178.78;;;26.60;100.00
11038;BME280;5572;49.540;11.932;2023-06-26T07:16:21;96212.09;;;25.91;100.00
11038;BME280;5572;49.540;11.932;2023-06-26T07:18:48;96247.66;;;25.54;100.00
11038;BME280;5572;49.540;11.932;2023-06-26T07:21:15;96223.97;;;26.22;100.00
11038;BME280;5572;49.540;11.932;2023-06-26T07:23:41;96209.63;;;26.90;100.00
11038;BME280;5572;49.540;11.932;2023-06-26T07:26:09;96140.50;;;25.79;100.00
11038;BME280;5572;49.540;11.932;2023-06-26T07:28:36;96166.53;;;26.33;100.00
11038;BME280;5572;49.540;11.932;2023-06-26T07:31:03;96190.72;;;26.40;100.00
11038;BME280;5572;49.540;11.932;2023-06-26T07:33:30;96161.28;;;26.81;100.00
11038;BME280;5572;49.540;11.932;2023-06-26T07:35:56;96105.00;;;26.84;100.00
11038;BME280;5572;49.540;11.932;2023-06-26T07:38:26;95921.19;;;28.27;100.00
11038;BME280;5572;49.540;11.932;2023-06-26T07:40:52;95982.19;;;28.07;100.00
11038;BME280;5572;49.540;11.932;2023-06-26T07:43:21;95945.06;;;27.54;100.00
11038;BME280;5572;49.540;11.932;2023-06-26T07:45:48;95955.31;;;27.57;100.00
11038;BME280;5572;49.540;11.932;2023-06-26T07:48:16;95826.28;;;27.69;100.00
11038;BME280;5572;49.540;11.932;2023-06-26T07:50:43;95718.47;;;29.59;100.00
11038;BME280;5572;49.540;11.932;2023-06-26T07:53:09;95654.03;;;28.60;100.00
11038;BME280;5572;49.540;11.932;2023-06-26T07:55:36;95653.34;;;28.33;100.00
11038;BME280;5572;49.540;11.932;2023-06-26T07:58:02;95718.88;;;28.80;100.00
11038;BME280;5572;49.540;11.932;2023-06-26T08:00:30;95651.69;;;29.72;100.00
11038;BME280;5572;49.540;11.932;2023-06-26T08:02:57;95561.81;;;28.81;100.00
11038;BME280;5572;49.540;11.932;2023-06-26T08:05:24;95657.50;;;29.06;100.00
11038;BME280;5572;49.540;11.932;2023-06-26T08:07:50;95544.94;;;29.59;100.00
11038;BME280;5572;49.540;11.932;2023-06-26T08:10:17;95616.50;;;29.62;100.00
11038;BME280;5572;49.540;11.932;2023-06-26T08:12:43;95494.91;;;29.83;100.00
11038;BME280;5572;49.540;11.932;2023-06-26T08:15:10;95481.28;;;30.17;100.00
11038;BME280;5572;49.540;11.932;2023-06-26T08:17:39;95530.63;;;30.04;100.00
11038;BME280;5572;49.540;11.932;2023-06-26T08:20:06;95462.13;;;29.59;100.00
11038;BME280;5572;49.540;11.932;2023-06-26T08:22:34;95507.75;;;29.49;100.00
11038;BME280;5572;49.540;11.932;2023-06-26T08:25:01;95585.59;;;29.56;100.00
11038;BME280;5572;49.540;11.932;2023-06-26T08:27:28;95553.50;;;29.32;100.00
11038;BME280;5572;49.540;11.932;2023-06-26T08:29:54;95488.38;;;29.90;100.00
11038;BME280;5572;49.540;11.932;2023-06-26T08:32:20;95443.09;;;29.42;100.00
11038;BME280;5572;49.540;11.932;2023-06-26T08:34:48;95447.94;;;29.06;100.00
11038;BME280;5572;49.540;11.932;2023-06-26T08:37:17;95457.66;;;29.93;100.00
11038;BME280;5572;49.540;11.932;2023-06-26T08:39:43;95432.44;;;29.21;100.00
11038;BME280;5572;49.540;11.932;2023-06-26T08:42:10;95436.84;;;29.38;100.00
11038;BME280;5572;49.540;11.932;2023-06-26T08:44:36;95300.69;;;30.34;100.00
11038;BME280;5572;49.540;11.932;2023-06-26T08:47:03;95424.59;;;29.32;100.00
11038;BME280;5572;49.540;11.932;2023-06-26T08:49:37;95376.97;;;29.58;100.00
11038;BME280;5572;49.540;11.932;2023-06-26T08:52:17;95400.22;;;29.52;100.00
11038;BME280;5572;49.540;11.932;2023-06-26T08:54:46;95365.22;;;30.73;100.00
11038;BME280;5572;49.540;11.932;2023-06-26T08:57:18;95374.84;;;29.90;100.00
11038;BME280;5572;49.540;11.932;2023-06-26T08:59:45;95282.41;;;30.58;100.00
11038;BME280;5572;49.540;11.932;2023-06-26T09:02:13;95287.69;;;29.90;100.00
11038;BME280;5572;49.540;11.932;2023-06-26T09:04:40;95168.53;;;30.99;100.00
11038;BME280;5572;49.540;11.932;2023-06-26T09:07:07;95111.53;;;30.41;100.00
11038;BME280;5572;49.540;11.932;2023-06-26T09:09:35;95174.59;;;29.52;100.00
11038;BME280;5572;49.540;11.932;2023-06-26T09:12:02;95207.50;;;29.81;100.00
11038;BME280;5572;49.540;11.932;2023-06-26T09:14:29;95046.94;;;30.43;100.00
11038;BME280;5572;49.540;11.932;2023-06-26T09:16:55;94989.34;;;31.00;100.00
11038;BME280;5572;49.540;11.932;2023-06-26T09:19:22;95119.88;;;30.20;100.00
11038;BME280;5572;49.540;11.932;2023-06-26T09:21:50;95089.91;;;31.31;100.00
11038;BME280;5572;49.540;11.932;2023-06-26T09:24:16;95162.16;;;31.20;100.00
11038;BME280;5572;49.540;11.932;2023-06-26T09:26:44;95082.84;;;30.53;100.00
11038;BME280;5572;49.540;11.932;2023-06-26T09:29:11;95008.34;;;30.84;100.00
11038;BME280;5572;49.540;11.932;2023-06-26T09:31:39;95053.56;;;31.52;100.00
11038;BME280;5572;49.540;11.932;2023-06-26T09:34:06;95065.47;;;31.44;100.00
11038;BME280;5572;49.540;11.932;2023-06-26T09:36:33;95108.19;;;31.01;100.00
11038;BME280;5572;49.540;11.932;2023-06-26T09:39:02;94947.94;;;32.04;100.00
11038;BME280;5572;49.540;11.932;2023-06-26T09:41:29;94982.09;;;31.33;100.00
11038;BME280;5572;49.540;11.932;2023-06-26T09:44:01;94837.63;;;31.96;100.00
11038;BME280;5572;49.540;11.932;2023-06-26T09:46:29;94839.16;;;31.52;100.00
11038;BME280;5572;49.540;11.932;2023-06-26T09:49:02;94865.69;;;31.48;100.00
11038;BME280;5572;49.540;11.932;2023-06-26T09:51:31;94881.75;;;31.74;100.00
11038;BME280;5572;49.540;11.932;2023-06-26T09:53:58;94902.88;;;31.75;100.00
11038;BME280;5572;49.540;11.932;2023-06-26T09:56:25;94830.94;;;31.76;100.00
11038;BME280;5572;49.540;11.932;2023-06-26T09:58:54;94868.16;;;31.28;100.00
11038;BME280;5572;49.540;11.932;2023-06-26T10:01:23;94882.34;;;31.60;100.00
11038;BME280;5572;49.540;11.932;2023-06-26T10:03:49;94934.75;;;32.14;100.00
11038;BME280;5572;49.540;11.932;2023-06-26T10:06:19;94917.50;;;31.22;100.00
11038;BME280;5572;49.540;11.932;2023-06-26T10:08:49;94774.53;;;32.13;100.00
11038;BME280;5572;49.540;11.932;2023-06-26T10:11:19;95119.50;;;31.71;100.00
11038;BME280;5572;49.540;11.932;2023-06-26T10:13:50;94757.28;;;32.24;100.00
11038;BME280;5572;49.540;11.932;2023-06-26T10:16:25;94851.75;;;32.20;100.00
11038;BME280;5572;49.540;11.932;2023-06-26T10:18:56;94729.47;;;32.11;100.00
11038;BME280;5572;49.540;11.932;2023-06-26T10:21:26;94720.63;;;32.13;100.00
11038;BME280;5572;49.540;11.932;2023-06-26T10:23:56;94792.84;;;32.23;100.00
11038;BME280;5572;49.540;11.932;2023-06-26T10:26:24;94797.72;;;31.87;100.00
11038;BME280;5572;49.540;11.932;2023-06-26T10:28:54;94872.28;;;32.17;100.00
11038;BME280;5572;49.540;11.932;2023-06-26T10:31:26;94954.09;;;31.63;100.00
11038;BME280;5572;49.540;11.932;2023-06-26T10:33:55;94768.47;;;32.56;100.00
11038;BME280;5572;49.540;11.932;2023-06-26T10:36:28;94819.88;;;32.26;100.00
11038;BME280;5572;49.540;11.932;2023-06-26T10:38:56;94823.59;;;32.82;100.00
11038;BME280;5572;49.540;11.932;2023-06-26T10:41:24;94936.75;;;32.04;100.00
11038;BME280;5572;49.540;11.932;2023-06-26T10:44:06;94836.09;;;33.51;100.00
11038;BME280;5572;49.540;11.932;2023-06-26T10:46:48;94958.22;;;32.25;100.00
11038;BME280;5572;49.540;11.932;2023-06-26T10:49:15;95199.00;;;31.70;100.00
11038;BME280;5572;49.540;11.932;2023-06-26T10:51:46;95018.53;;;32.44;100.00
11038;BME280;5572;49.540;11.932;2023-06-26T10:54:14;94675.41;;;32.14;100.00
11038;BME280;5572;49.540;11.932;2023-06-26T10:56:42;94846.06;;;33.29;100.00
11038;BME280;5572;49.540;11.932;2023-06-26T10:59:16;94839.72;;;33.29;100.00
11038;BME280;5572;49.540;11.932;2023-06-26T11:01:45;94736.63;;;32.86;100.00
11038;BME280;5572;49.540;11.932;2023-06-26T11:04:13;94781.13;;;32.43;100.00
11038;BME280;5572;49.540;11.932;2023-06-26T11:06:41;94742.53;;;32.88;100.00
11038;BME280;5572;49.540;11.932;2023-06-26T11:09:13;94751.56;;;32.83;100.00
11038;BME280;5572;49.540;11.932;2023-06-26T11:11:59;94861.91;;;32.67;100.00
11038;BME280;5572;49.540;11.932;2023-06-26T11:14:30;94849.47;;;33.56;100.00
11038;BME280;5572;49.540;11.932;2023-06-26T11:16:59;94872.03;;;33.38;100.00
11038;BME280;5572;49.540;11.932;2023-06-26T11:19:28;94770.78;;;32.99;100.00
11038;BME280;5572;49.540;11.932;2023-06-26T11:21:59;94846.03;;;32.73;100.00
11038;BME280;5572;49.540;11.932;2023-06-26T11:24:26;94868.50;;;32.97;100.00
11038;BME280;5572;49.540;11.932;2023-06-26T11:26:59;94889.59;;;32.65;100.00
11038;BME280;5572;49.540;11.932;2023-06-26T11:29:26;94814.53;;;32.87;100.00
11038;BME280;5572;49.540;11.932;2023-06-26T11:32:00;94748.50;;;33.65;100.00
11038;BME280;5572;49.540;11.932;2023-06-26T11:34:31;94809.22;;;33.68;100.00
11038;BME280;5572;49.540;11.932;2023-06-26T11:36:58;94837.47;;;33.56;100.00
11038;BME280;5572;49.540;11.932;2023-06-26T11:39:26;94860.03;;;33.06;100.00
11038;BME280;5572;49.540;11.932;2023-06-26T11:41:53;94865.63;;;32.73;100.00
11038;BME280;5572;49.540;11.932;2023-06-26T11:44:21;94969.06;;;32.50;100.00
11038;BME280;5572;49.540;11.932;2023-06-26T11:46:51;95137.69;;;32.15;100.00
11038;BME280;5572;49.540;11.932;2023-06-26T11:49:21;95198.31;;;32.18;100.00
11038;BME280;5572;49.540;11.932;2023-06-26T11:51:48;95199.41;;;31.17;100.00
11038;BME280;5572;49.540;11.932;2023-06-26T11:54:15;94882.00;;;32.57;100.00
11038;BME280;5572;49.540;11.932;2023-06-26T11:56:41;94969.16;;;33.00;100.00
11038;BME280;5572;49.540;11.932;2023-06-26T11:59:11;95057.22;;;32.19;100.00
11038;BME280;5572;49.540;11.932;2023-06-26T12:01:40;94887.47;;;33.34;100.00
11038;BME280;5572;49.540;11.932;2023-06-26T12:04:08;94911.09;;;32.06;100.00
11038;BME280;5572;49.540;11.932;2023-06-26T12:06:38;94838.72;;;32.76;100.00
11038;BME280;5572;49.540;11.932;2023-06-26T12:09:06;94697.22;;;33.13;100.00
11038;BME280;5572;49.540;11.932;2023-06-26T12:11:35;94932.31;;;33.34;100.00
11038;BME280;5572;49.540;11.932;2023-06-26T12:14:03;94870.81;;;32.48;100.00
11038;BME280;5572;49.540;11.932;2023-06-26T12:16:30;94920.78;;;32.23;100.00
11038;BME280;5572;49.540;11.932;2023-06-26T12:18:58;94909.03;;;32.78;100.00
11038;BME280;5572;49.540;11.932;2023-06-26T12:21:28;94914.84;;;32.98;100.00
11038;BME280;5572;49.540;11.932;2023-06-26T12:23:59;95102.00;;;32.45;100.00
11038;BME280;5572;49.540;11.932;2023-06-26T12:26:27;94956.94;;;32.62;100.00
11038;BME280;5572;49.540;11.932;2023-06-26T12:28:54;95146.56;;;32.13;100.00
11038;BME280;5572;49.540;11.932;2023-06-26T12:31:21;95080.41;;;32.82;100.00
11038;BME280;5572;49.540;11.932;2023-06-26T12:33:48;94979.69;;;33.05;100.00
11038;BME280;5572;49.540;11.932;2023-06-26T12:36:17;95165.66;;;32.63;100.00
11038;BME280;5572;49.540;11.932;2023-06-26T12:38:45;95094.56;;;32.51;100.00
11038;BME280;5572;49.540;11.932;2023-06-26T12:41:13;95112.25;;;32.31;100.00
11038;BME280;5572;49.540;11.932;2023-06-26T12:43:41;95161.00;;;32.12;100.00
11038;BME280;5572;49.540;11.932;2023-06-26T12:46:08;95209.28;;;33.62;100.00
11038;BME280;5572;49.540;11.932;2023-06-26T12:48:38;95054.44;;;33.58;100.00
11038;BME280;5572;49.540;11.932;2023-06-26T12:51:09;94946.84;;;34.03;100.00
11038;BME280;5572;49.540;11.932;2023-06-26T12:53:36;94805.13;;;32.99;100.00
11038;BME280;5572;49.540;11.932;2023-06-26T12:56:04;94876.97;;;33.43;100.00
11038;BME280;5572;49.540;11.932;2023-06-26T12:58:33;94838.69;;;33.40;100.00
11038;BME280;5572;49.540;11.932;2023-06-26T13:00:59;95088.34;;;32.92;100.00
11038;BME280;5572;49.540;11.932;2023-06-26T13:03:26;95279.31;;;32.21;100.00
11038;BME280;5572;49.540;11.932;2023-06-26T13:05:52;94904.00;;;33.55;100.00
11038;BME280;5572;49.540;11.932;2023-06-26T13:08:19;94859.25;;;33.05;100.00
11038;BME280;5572;49.540;11.932;2023-06-26T13:10:45;95063.16;;;33.60;100.00
11038;BME280;5572;49.540;11.932;2023-06-26T13:13:12;95179.88;;;31.99;100.00
11038;BME280;5572;49.540;11.932;2023-06-26T13:15:40;95208.75;;;32.17;100.00
11038;BME280;5572;49.540;11.932;2023-06-26T13:18:07;95013.19;;;33.50;100.00
11038;BME280;5572;49.540;11.932;2023-06-26T13:20:33;95072.28;;;33.29;100.00
11038;BME280;5572;49.540;11.932;2023-06-26T13:23:00;95032.34;;;33.51;100.00
11038;BME280;5572;49.540;11.932;2023-06-26T13:25:26;95054.25;;;33.03;100.00
11038;BME280;5572;49.540;11.932;2023-06-26T13:27:53;95232.31;;;33.22;100.00
11038;BME280;5572;49.540;11.932;2023-06-26T13:30:19;95354.34;;;31.25;100.00
11038;BME280;5572;49.540;11.932;2023-06-26T13:32:47;95239.69;;;32.01;100.00
11038;BME280;5572;49.540;11.932;2023-06-26T13:35:13;95138.16;;;32.70;100.00
11038;BME280;5572;49.540;11.932;2023-06-26T13:37:40;95125.06;;;32.85;100.00
11038;BME280;5572;49.540;11.932;2023-06-26T13:40:08;94766.91;;;33.20;100.00
11038;BME280;5572;49.540;11.932;2023-06-26T13:42:36;94774.50;;;33.66;100.00
11038;BME280;5572;49.540;11.932;2023-06-26T13:45:04;95071.56;;;32.92;100.00
11038;BME280;5572;49.540;11.932;2023-06-26T13:47:31;94957.81;;;33.36;100.00
11038;BME280;5572;49.540;11.932;2023-06-26T13:50:00;95220.03;;;33.28;100.00
11038;BME280;5572;49.540;11.932;2023-06-26T13:52:27;94881.38;;;32.62;100.00
11038;BME280;5572;49.540;11.932;2023-06-26T13:54:53;94998.88;;;32.98;100.00
11038;BME280;5572;49.540;11.932;2023-06-26T13:57:20;94966.50;;;32.97;100.00
11038;BME280;5572;49.540;11.932;2023-06-26T13:59:47;94941.88;;;33.10;100.00
11038;BME280;5572;49.540;11.932;2023-06-26T14:02:14;95035.00;;;32.51;100.00
11038;BME280;5572;49.540;11.932;2023-06-26T14:04:40;95091.22;;;32.08;100.00
11038;BME280;5572;49.540;11.932;2023-06-26T14:07:09;95098.03;;;33.68;100.00
11038;BME280;5572;49.540;11.932;2023-06-26T14:09:35;95002.25;;;33.29;100.00
11038;BME280;5572;49.540;11.932;2023-06-26T14:12:02;94891.47;;;33.10;100.00
11038;BME280;5572;49.540;11.932;2023-06-26T14:14:29;94930.56;;;32.18;100.00